Licenciado Benito Juarez International Airport
MMMX : now visible

Airfield :











YOU CAN JOIN US ON...

 
LOGIN :

Register | Disclaimer

   EN    FR    IT 

 









Legend :    VFR   Marginal VFR   IFR   Intensive IFR   Very Intensive IFR
Visi :
Ceiling :
>= 8 km
>= 3000ft
5 to 8 km
1000 to 3000 ft
1500m to 5 km
500 to 1000 ft
800 to 1500m
200 to 500 ft
< 800m
< 200 ft
Symbols :   Thunderstorms  Fog  Heavy snow  Heavy precipitations  Wind > 20 kt






- Airport Elevation : 7316 ft
- IATA code : MEX


MMMX - Licenciado Benito Juarez International

CURRENT METAR :
  • 100552Z 00000KT 8SM SCT020 SCT080 20/05 A3033 NOSIG RMK SLP073 52010 963 8/530 HZY

EXPIRED METARs :
  • 100445Z 00000KT 8SM FEW020 SCT080 21/06 A3033 NOSIG RMK 8/430 HZY CI
  • 100345Z 26008KT 8SM SCT020 BKN080 21/09 A3031 NOSIG RMK 8/460 HZY CI

TAF TAF MMMX
Valid from the 10 at 06:00 until the 11 at 12:00 UTC


100422Z 1006/1112 26005KT P6SM SCT020 SCT080 TX28/1021Z TN16/1012Z
FM101200 00000KT 5SM HZ SCT080
FM101800 22010KT P6SM SCT020
BECMG 1022/1023 SCT020CB BKN080
TEMPO 1100/1104 6SM RA VC TS



MET'MAP, your aeronautical weather chart ! - Copyright ORBIFLY December 2007 - Disclaimer

ORBIFLY MET'MAP TEAM :

Programming & Development : Alexandra Zaïnal
Concept & original design : Baudouin d'Aumeries
Assistance for programming : Marc-Olivier Méhu
Technical & hardware support : Manuel Goepfert

Contact : metmap@orbifly.com




SOURCES & CREDITS :

   NOAA       Earth
Advisory